sensor_id;sensor_type;location;lat;lon;timestamp;P1;durP1;ratioP1;P2;durP2;ratioP2
40459;SDS011;26164;51.138;16.952;2023-04-06T00:01:02;111.70;;;49.95;;
40459;SDS011;26164;51.138;16.952;2023-04-06T00:03:28;126.78;;;52.50;;
40459;SDS011;26164;51.138;16.952;2023-04-06T00:05:54;121.07;;;54.10;;
40459;SDS011;26164;51.138;16.952;2023-04-06T00:08:19;124.70;;;56.08;;
40459;SDS011;26164;51.138;16.952;2023-04-06T00:10:47;123.45;;;54.45;;
40459;SDS011;26164;51.138;16.952;2023-04-06T00:13:12;141.07;;;61.13;;
40459;SDS011;26164;51.138;16.952;2023-04-06T00:15:38;141.90;;;62.65;;
40459;SDS011;26164;51.138;16.952;2023-04-06T00:18:04;129.98;;;60.28;;
40459;SDS011;26164;51.138;16.952;2023-04-06T00:20:29;136.80;;;62.00;;
40459;SDS011;26164;51.138;16.952;2023-04-06T00:22:55;151.35;;;64.20;;
40459;SDS011;26164;51.138;16.952;2023-04-06T00:25:21;159.23;;;68.15;;
40459;SDS011;26164;51.138;16.952;2023-04-06T00:27:47;110.03;;;51.13;;
40459;SDS011;26164;51.138;16.952;2023-04-06T00:30:13;101.97;;;49.97;;
40459;SDS011;26164;51.138;16.952;2023-04-06T00:32:38;119.72;;;52.95;;
40459;SDS011;26164;51.138;16.952;2023-04-06T00:35:05;120.68;;;53.90;;
40459;SDS011;26164;51.138;16.952;2023-04-06T00:37:31;111.60;;;50.70;;
40459;SDS011;26164;51.138;16.952;2023-04-06T00:39:57;113.70;;;52.15;;
40459;SDS011;26164;51.138;16.952;2023-04-06T00:42:23;116.72;;;52.75;;
40459;SDS011;26164;51.138;16.952;2023-04-06T00:44:52;101.82;;;47.20;;
40459;SDS011;26164;51.138;16.952;2023-04-06T00:47:18;119.57;;;53.85;;
40459;SDS011;26164;51.138;16.952;2023-04-06T00:49:44;115.10;;;53.00;;
40459;SDS011;26164;51.138;16.952;2023-04-06T00:52:10;107.45;;;50.30;;
40459;SDS011;26164;51.138;16.952;2023-04-06T00:54:36;106.80;;;49.15;;
40459;SDS011;26164;51.138;16.952;2023-04-06T00:57:02;103.22;;;52.28;;
40459;SDS011;26164;51.138;16.952;2023-04-06T00:59:29;134.32;;;58.30;;
40459;SDS011;26164;51.138;16.952;2023-04-06T01:01:56;150.75;;;73.40;;
40459;SDS011;26164;51.138;16.952;2023-04-06T01:04:34;144.02;;;66.72;;
40459;SDS011;26164;51.138;16.952;2023-04-06T01:07:01;156.63;;;69.25;;
40459;SDS011;26164;51.138;16.952;2023-04-06T01:09:34;171.88;;;76.68;;
40459;SDS011;26164;51.138;16.952;2023-04-06T01:12:04;165.27;;;76.38;;
40459;SDS011;26164;51.138;16.952;2023-04-06T01:14:31;169.20;;;75.28;;
40459;SDS011;26164;51.138;16.952;2023-04-06T01:16:59;164.73;;;77.57;;
40459;SDS011;26164;51.138;16.952;2023-04-06T01:19:29;156.80;;;72.60;;
40459;SDS011;26164;51.138;16.952;2023-04-06T01:21:55;160.63;;;73.93;;
40459;SDS011;26164;51.138;16.952;2023-04-06T01:24:41;151.20;;;70.30;;
40459;SDS011;26164;51.138;16.952;2023-04-06T01:27:16;158.77;;;73.18;;
40459;SDS011;26164;51.138;16.952;2023-04-06T01:30:14;149.25;;;71.32;;
40459;SDS011;26164;51.138;16.952;2023-04-06T01:32:46;157.50;;;72.43;;
40459;SDS011;26164;51.138;16.952;2023-04-06T01:35:15;169.68;;;77.68;;
40459;SDS011;26164;51.138;16.952;2023-04-06T01:37:50;166.00;;;76.78;;
40459;SDS011;26164;51.138;16.952;2023-04-06T01:40:23;144.98;;;66.50;;
40459;SDS011;26164;51.138;16.952;2023-04-06T01:42:51;148.10;;;68.95;;
40459;SDS011;26164;51.138;16.952;2023-04-06T01:45:25;147.35;;;66.78;;
40459;SDS011;26164;51.138;16.952;2023-04-06T01:47:55;151.25;;;71.22;;
40459;SDS011;26164;51.138;16.952;2023-04-06T01:50:24;155.13;;;72.53;;
40459;SDS011;26164;51.138;16.952;2023-04-06T01:52:50;139.27;;;66.55;;
40459;SDS011;26164;51.138;16.952;2023-04-06T01:55:16;142.98;;;67.47;;
40459;SDS011;26164;51.138;16.952;2023-04-06T01:58:00;143.10;;;67.70;;
40459;SDS011;26164;51.138;16.952;2023-04-06T02:00:33;148.30;;;67.75;;
40459;SDS011;26164;51.138;16.952;2023-04-06T02:02:59;142.48;;;67.32;;
40459;SDS011;26164;51.138;16.952;2023-04-06T02:05:29;132.80;;;63.53;;
40459;SDS011;26164;51.138;16.952;2023-04-06T02:07:55;129.55;;;61.60;;
40459;SDS011;26164;51.138;16.952;2023-04-06T02:10:29;141.35;;;64.15;;
40459;SDS011;26164;51.138;16.952;2023-04-06T02:12:57;145.88;;;67.35;;
40459;SDS011;26164;51.138;16.952;2023-04-06T02:15:26;155.15;;;73.97;;
40459;SDS011;26164;51.138;16.952;2023-04-06T02:17:52;170.18;;;76.95;;
40459;SDS011;26164;51.138;16.952;2023-04-06T02:20:17;174.57;;;76.93;;
40459;SDS011;26164;51.138;16.952;2023-04-06T02:22:43;166.40;;;74.60;;
40459;SDS011;26164;51.138;16.952;2023-04-06T02:25:09;159.13;;;73.65;;
40459;SDS011;26164;51.138;16.952;2023-04-06T02:27:35;164.05;;;75.72;;
40459;SDS011;26164;51.138;16.952;2023-04-06T02:30:02;160.95;;;74.40;;
40459;SDS011;26164;51.138;16.952;2023-04-06T02:32:27;169.50;;;76.13;;
40459;SDS011;26164;51.138;16.952;2023-04-06T02:34:54;164.90;;;75.25;;
40459;SDS011;26164;51.138;16.952;2023-04-06T02:37:21;160.82;;;74.53;;
40459;SDS011;26164;51.138;16.952;2023-04-06T02:39:47;169.27;;;77.18;;
40459;SDS011;26164;51.138;16.952;2023-04-06T02:42:13;159.65;;;75.78;;
40459;SDS011;26164;51.138;16.952;2023-04-06T02:44:41;165.85;;;78.47;;
40459;SDS011;26164;51.138;16.952;2023-04-06T02:47:07;157.70;;;75.53;;
40459;SDS011;26164;51.138;16.952;2023-04-06T02:49:38;166.80;;;78.03;;
40459;SDS011;26164;51.138;16.952;2023-04-06T02:52:03;162.27;;;73.72;;
40459;SDS011;26164;51.138;16.952;2023-04-06T02:54:33;173.77;;;80.00;;
40459;SDS011;26164;51.138;16.952;2023-04-06T02:57:00;174.43;;;81.60;;
40459;SDS011;26164;51.138;16.952;2023-04-06T02:59:36;170.95;;;76.07;;
40459;SDS011;26164;51.138;16.952;2023-04-06T03:02:09;166.00;;;73.57;;
40459;SDS011;26164;51.138;16.952;2023-04-06T03:04:35;191.40;;;83.93;;
40459;SDS011;26164;51.138;16.952;2023-04-06T03:07:03;182.05;;;79.97;;
40459;SDS011;26164;51.138;16.952;2023-04-06T03:09:36;165.25;;;78.90;;
40459;SDS011;26164;51.138;16.952;2023-04-06T03:12:02;172.13;;;81.18;;
40459;SDS011;26164;51.138;16.952;2023-04-06T03:14:30;172.63;;;78.68;;
40459;SDS011;26164;51.138;16.952;2023-04-06T03:16:56;174.05;;;79.30;;
40459;SDS011;26164;51.138;16.952;2023-04-06T03:19:23;169.90;;;78.35;;
40459;SDS011;26164;51.138;16.952;2023-04-06T03:21:50;172.90;;;76.68;;
40459;SDS011;26164;51.138;16.952;2023-04-06T03:24:17;159.77;;;77.05;;
40459;SDS011;26164;51.138;16.952;2023-04-06T03:26:42;172.48;;;78.45;;
40459;SDS011;26164;51.138;16.952;2023-04-06T03:29:08;193.75;;;89.80;;
40459;SDS011;26164;51.138;16.952;2023-04-06T03:31:34;224.88;;;104.50;;
40459;SDS011;26164;51.138;16.952;2023-04-06T03:34:07;231.05;;;113.65;;
40459;SDS011;26164;51.138;16.952;2023-04-06T03:36:34;245.27;;;118.75;;
40459;SDS011;26164;51.138;16.952;2023-04-06T03:39:02;212.65;;;97.90;;
40459;SDS011;26164;51.138;16.952;2023-04-06T03:41:30;173.48;;;82.38;;
40459;SDS011;26164;51.138;16.952;2023-04-06T03:44:02;197.50;;;93.32;;
40459;SDS011;26164;51.138;16.952;2023-04-06T03:46:28;239.35;;;120.07;;
40459;SDS011;26164;51.138;16.952;2023-04-06T03:48:56;203.40;;;98.47;;
40459;SDS011;26164;51.138;16.952;2023-04-06T03:51:23;190.55;;;93.15;;
40459;SDS011;26164;51.138;16.952;2023-04-06T03:53:49;182.57;;;89.60;;
40459;SDS011;26164;51.138;16.952;2023-04-06T03:56:14;194.30;;;92.53;;
40459;SDS011;26164;51.138;16.952;2023-04-06T03:58:40;189.60;;;89.75;;
40459;SDS011;26164;51.138;16.952;2023-04-06T04:01:06;188.43;;;86.97;;
40459;SDS011;26164;51.138;16.952;2023-04-06T04:03:34;171.20;;;78.72;;
40459;SDS011;26164;51.138;16.952;2023-04-06T04:05:59;178.63;;;82.53;;
40459;SDS011;26164;51.138;16.952;2023-04-06T04:08:25;167.60;;;81.80;;
40459;SDS011;26164;51.138;16.952;2023-04-06T04:10:51;152.20;;;74.90;;
40459;SDS011;26164;51.138;16.952;2023-04-06T04:13:18;149.68;;;72.53;;
40459;SDS011;26164;51.138;16.952;2023-04-06T04:15:47;154.45;;;67.03;;
40459;SDS011;26164;51.138;16.952;2023-04-06T04:18:14;136.25;;;65.63;;
40459;SDS011;26164;51.138;16.952;2023-04-06T04:20:40;144.38;;;66.47;;
40459;SDS011;26164;51.138;16.952;2023-04-06T04:23:10;145.10;;;66.53;;
40459;SDS011;26164;51.138;16.952;2023-04-06T04:25:36;150.95;;;68.82;;
40459;SDS011;26164;51.138;16.952;2023-04-06T04:28:02;142.68;;;65.68;;
40459;SDS011;26164;51.138;16.952;2023-04-06T04:30:29;160.07;;;69.45;;
40459;SDS011;26164;51.138;16.952;2023-04-06T04:32:55;197.55;;;87.72;;
40459;SDS011;26164;51.138;16.952;2023-04-06T04:35:22;161.10;;;72.10;;
40459;SDS011;26164;51.138;16.952;2023-04-06T04:37:50;164.68;;;73.43;;
40459;SDS011;26164;51.138;16.952;2023-04-06T04:40:15;194.95;;;83.50;;
40459;SDS011;26164;51.138;16.952;2023-04-06T04:43:02;163.68;;;74.57;;
40459;SDS011;26164;51.138;16.952;2023-04-06T04:45:32;150.35;;;67.32;;
40459;SDS011;26164;51.138;16.952;2023-04-06T04:48:06;147.85;;;69.40;;
40459;SDS011;26164;51.138;16.952;2023-04-06T04:50:45;195.35;;;84.50;;
40459;SDS011;26164;51.138;16.952;2023-04-06T04:56:00;188.55;;;84.63;;
40459;SDS011;26164;51.138;16.952;2023-04-06T04:58:27;166.93;;;76.90;;
40459;SDS011;26164;51.138;16.952;2023-04-06T05:00:56;155.45;;;70.82;;
40459;SDS011;26164;51.138;16.952;2023-04-06T05:03:23;139.75;;;64.95;;
40459;SDS011;26164;51.138;16.952;2023-04-06T05:06:00;139.60;;;66.85;;
40459;SDS011;26164;51.138;16.952;2023-04-06T05:08:29;149.60;;;69.90;;
40459;SDS011;26164;51.138;16.952;2023-04-06T05:10:56;147.98;;;71.78;;
40459;SDS011;26164;51.138;16.952;2023-04-06T05:13:25;143.40;;;68.18;;
40459;SDS011;26164;51.138;16.952;2023-04-06T05:15:52;146.10;;;66.13;;
40459;SDS011;26164;51.138;16.952;2023-04-06T05:18:24;145.43;;;69.45;;
40459;SDS011;26164;51.138;16.952;2023-04-06T05:20:50;145.85;;;70.85;;
40459;SDS011;26164;51.138;16.952;2023-04-06T05:26:06;143.48;;;66.22;;
40459;SDS011;26164;51.138;16.952;2023-04-06T05:28:34;148.93;;;69.93;;
40459;SDS011;26164;51.138;16.952;2023-04-06T05:31:02;140.32;;;68.68;;
40459;SDS011;26164;51.138;16.952;2023-04-06T05:33:34;148.57;;;70.60;;
40459;SDS011;26164;51.138;16.952;2023-04-06T05:36:07;140.68;;;68.22;;
40459;SDS011;26164;51.138;16.952;2023-04-06T05:38:37;141.20;;;69.30;;
40459;SDS011;26164;51.138;16.952;2023-04-06T05:41:13;150.13;;;72.47;;
40459;SDS011;26164;51.138;16.952;2023-04-06T05:43:41;149.95;;;71.00;;
40459;SDS011;26164;51.138;16.952;2023-04-06T05:46:06;145.30;;;69.82;;
40459;SDS011;26164;51.138;16.952;2023-04-06T05:48:33;140.82;;;70.80;;
40459;SDS011;26164;51.138;16.952;2023-04-06T05:51:00;133.07;;;66.25;;
40459;SDS011;26164;51.138;16.952;2023-04-06T05:53:37;128.48;;;64.95;;
40459;SDS011;26164;51.138;16.952;2023-04-06T05:56:04;124.60;;;61.08;;
40459;SDS011;26164;51.138;16.952;2023-04-06T05:58:30;132.93;;;60.88;;
40459;SDS011;26164;51.138;16.952;2023-04-06T06:00:58;124.55;;;60.90;;
40459;SDS011;26164;51.138;16.952;2023-04-06T06:03:24;121.72;;;60.67;;
40459;SDS011;26164;51.138;16.952;2023-04-06T06:05:53;114.88;;;57.15;;
40459;SDS011;26164;51.138;16.952;2023-04-06T06:08:27;94.50;;;46.28;;
40459;SDS011;26164;51.138;16.952;2023-04-06T06:10:54;106.95;;;54.80;;
40459;SDS011;26164;51.138;16.952;2023-04-06T06:13:25;104.25;;;52.47;;
40459;SDS011;26164;51.138;16.952;2023-04-06T06:17:08;106.10;;;52.13;;
40459;SDS011;26164;51.138;16.952;2023-04-06T06:43:34;86.45;;;42.25;;
40459;SDS011;26164;51.138;16.952;2023-04-06T12:14:42;12.43;;;6.63;;
40459;SDS011;26164;51.138;16.952;2023-04-06T12:17:11;14.35;;;6.53;;
40459;SDS011;26164;51.138;16.952;2023-04-06T12:19:40;16.08;;;7.22;;
40459;SDS011;26164;51.138;16.952;2023-04-06T12:23:08;12.27;;;6.68;;
40459;SDS011;26164;51.138;16.952;2023-04-06T12:26:38;12.73;;;6.97;;
40459;SDS011;26164;51.138;16.952;2023-04-06T12:37:30;12.15;;;7.13;;
40459;SDS011;26164;51.138;16.952;2023-04-06T12:43:35;11.45;;;6.47;;
40459;SDS011;26164;51.138;16.952;2023-04-06T12:46:27;15.55;;;6.70;;
40459;SDS011;26164;51.138;16.952;2023-04-06T12:49:48;9.55;;;6.10;;
40459;SDS011;26164;51.138;16.952;2023-04-06T12:52:55;11.80;;;6.82;;
40459;SDS011;26164;51.138;16.952;2023-04-06T12:55:53;13.07;;;5.88;;
40459;SDS011;26164;51.138;16.952;2023-04-06T12:58:42;9.00;;;4.88;;
40459;SDS011;26164;51.138;16.952;2023-04-06T13:01:24;11.70;;;5.05;;
40459;SDS011;26164;51.138;16.952;2023-04-06T13:03:58;11.70;;;5.80;;
40459;SDS011;26164;51.138;16.952;2023-04-06T13:07:19;10.70;;;5.88;;
40459;SDS011;26164;51.138;16.952;2023-04-06T13:10:06;10.93;;;5.50;;
40459;SDS011;26164;51.138;16.952;2023-04-06T13:13:45;11.90;;;5.75;;
40459;SDS011;26164;51.138;16.952;2023-04-06T13:29:28;8.98;;;4.93;;
40459;SDS011;26164;51.138;16.952;2023-04-06T13:32:09;10.27;;;5.50;;
40459;SDS011;26164;51.138;16.952;2023-04-06T13:34:54;9.65;;;5.22;;
40459;SDS011;26164;51.138;16.952;2023-04-06T13:41:04;9.38;;;5.78;;
40459;SDS011;26164;51.138;16.952;2023-04-06T13:43:53;11.43;;;6.22;;
40459;SDS011;26164;51.138;16.952;2023-04-06T13:46:46;10.82;;;5.93;;
40459;SDS011;26164;51.138;16.952;2023-04-06T13:49:30;12.00;;;6.68;;
40459;SDS011;26164;51.138;16.952;2023-04-06T13:52:13;11.23;;;6.25;;
40459;SDS011;26164;51.138;16.952;2023-04-06T13:55:08;11.60;;;6.67;;
40459;SDS011;26164;51.138;16.952;2023-04-06T13:58:04;14.48;;;7.13;;
40459;SDS011;26164;51.138;16.952;2023-04-06T14:00:53;12.18;;;6.72;;
40459;SDS011;26164;51.138;16.952;2023-04-06T14:08:00;12.95;;;7.25;;
40459;SDS011;26164;51.138;16.952;2023-04-06T14:19:09;12.43;;;6.63;;
40459;SDS011;26164;51.138;16.952;2023-04-06T14:22:48;11.82;;;6.97;;
40459;SDS011;26164;51.138;16.952;2023-04-06T14:32:23;14.55;;;7.43;;
40459;SDS011;26164;51.138;16.952;2023-04-06T14:35:49;10.10;;;5.47;;
40459;SDS011;26164;51.138;16.952;2023-04-06T14:38:46;12.80;;;6.60;;
40459;SDS011;26164;51.138;16.952;2023-04-06T14:42:07;11.73;;;6.28;;
40459;SDS011;26164;51.138;16.952;2023-04-06T14:45:10;11.35;;;7.43;;
40459;SDS011;26164;51.138;16.952;2023-04-06T14:48:41;11.95;;;7.07;;
40459;SDS011;26164;51.138;16.952;2023-04-06T14:58:58;11.38;;;6.30;;
40459;SDS011;26164;51.138;16.952;2023-04-06T15:02:26;12.73;;;6.50;;
40459;SDS011;26164;51.138;16.952;2023-04-06T15:09:19;8.70;;;5.05;;
40459;SDS011;26164;51.138;16.952;2023-04-06T15:15:55;11.90;;;6.53;;
40459;SDS011;26164;51.138;16.952;2023-04-06T15:22:42;12.23;;;6.03;;
40459;SDS011;26164;51.138;16.952;2023-04-06T15:42:58;9.40;;;5.18;;
40459;SDS011;26164;51.138;16.952;2023-04-06T17:02:17;13.18;;;7.05;;
40459;SDS011;26164;51.138;16.952;2023-04-06T17:09:35;14.82;;;6.82;;
40459;SDS011;26164;51.138;16.952;2023-04-06T17:25:11;16.92;;;8.13;;
40459;SDS011;26164;51.138;16.952;2023-04-06T17:46:15;17.08;;;7.82;;
40459;SDS011;26164;51.138;16.952;2023-04-06T17:58:27;15.43;;;8.02;;
40459;SDS011;26164;51.138;16.952;2023-04-06T19:08:29;19.17;;;9.95;;
40459;SDS011;26164;51.138;16.952;2023-04-06T19:28:13;23.50;;;12.15;;
40459;SDS011;26164;51.138;16.952;2023-04-06T19:42:45;29.77;;;13.35;;
40459;SDS011;26164;51.138;16.952;2023-04-06T20:41:36;25.80;;;14.02;;
40459;SDS011;26164;51.138;16.952;2023-04-06T20:45:23;30.25;;;16.00;;
40459;SDS011;26164;51.138;16.952;2023-04-06T20:48:48;30.67;;;15.98;;
40459;SDS011;26164;51.138;16.952;2023-04-06T21:09:29;27.30;;;14.60;;
40459;SDS011;26164;51.138;16.952;2023-04-06T21:16:10;36.75;;;18.15;;
40459;SDS011;26164;51.138;16.952;2023-04-06T21:19:02;33.67;;;17.75;;
40459;SDS011;26164;51.138;16.952;2023-04-06T21:30:29;32.92;;;17.60;;
40459;SDS011;26164;51.138;16.952;2023-04-06T21:33:33;34.97;;;17.80;;
40459;SDS011;26164;51.138;16.952;2023-04-06T21:41:05;39.53;;;19.10;;
40459;SDS011;26164;51.138;16.952;2023-04-06T21:47:41;34.42;;;16.65;;
40459;SDS011;26164;51.138;16.952;2023-04-06T22:03:59;39.22;;;19.75;;
40459;SDS011;26164;51.138;16.952;2023-04-06T22:06:41;36.60;;;19.17;;
40459;SDS011;26164;51.138;16.952;2023-04-06T22:09:07;36.28;;;18.40;;
40459;SDS011;26164;51.138;16.952;2023-04-06T23:32:26;34.83;;;18.55;;
40459;SDS011;26164;51.138;16.952;2023-04-06T23:35:44;34.50;;;17.25;;
40459;SDS011;26164;51.138;16.952;2023-04-06T23:38:28;29.67;;;16.02;;
40459;SDS011;26164;51.138;16.952;2023-04-06T23:41:24;28.80;;;15.60;;
40459;SDS011;26164;51.138;16.952;2023-04-06T23:44:13;25.83;;;14.45;;
40459;SDS011;26164;51.138;16.952;2023-04-06T23:56:22;24.30;;;13.90;;
40459;SDS011;26164;51.138;16.952;2023-04-06T23:58:56;30.50;;;14.82;;
